sensor_id;sensor_type;location;lat;lon;timestamp;P1;durP1;ratioP1;P2;durP2;ratioP2
2147;SDS011;1080;48.724;9.104;2022-11-24T17:32:19;14.07;;;7.07;;
2147;SDS011;1080;48.724;9.104;2022-11-24T17:34:47;15.30;;;6.67;;
2147;SDS011;1080;48.724;9.104;2022-11-24T17:37:14;18.73;;;7.80;;
2147;SDS011;1080;48.724;9.104;2022-11-24T17:39:41;15.53;;;8.83;;
2147;SDS011;1080;48.724;9.104;2022-11-24T17:42:08;11.07;;;6.30;;
2147;SDS011;1080;48.724;9.104;2022-11-24T17:44:35;62.20;;;37.23;;
2147;SDS011;1080;48.724;9.104;2022-11-24T17:47:02;45.53;;;32.77;;
2147;SDS011;1080;48.724;9.104;2022-11-24T17:49:30;22.17;;;15.63;;
2147;SDS011;1080;48.724;9.104;2022-11-24T17:51:57;19.70;;;14.53;;
2147;SDS011;1080;48.724;9.104;2022-11-24T17:54:25;19.27;;;15.43;;
2147;SDS011;1080;48.724;9.104;2022-11-24T17:56:52;20.37;;;18.20;;
2147;SDS011;1080;48.724;9.104;2022-11-24T17:59:19;9.83;;;4.80;;
2147;SDS011;1080;48.724;9.104;2022-11-24T18:01:46;8.27;;;4.03;;
2147;SDS011;1080;48.724;9.104;2022-11-24T18:04:13;12.27;;;7.10;;
2147;SDS011;1080;48.724;9.104;2022-11-24T18:06:41;14.20;;;8.07;;
2147;SDS011;1080;48.724;9.104;2022-11-24T18:09:10;16.90;;;8.40;;
2147;SDS011;1080;48.724;9.104;2022-11-24T18:11:37;17.20;;;8.03;;
2147;SDS011;1080;48.724;9.104;2022-11-24T18:14:04;13.43;;;7.40;;
2147;SDS011;1080;48.724;9.104;2022-11-24T18:16:32;22.80;;;10.83;;
2147;SDS011;1080;48.724;9.104;2022-11-24T18:19:00;22.60;;;8.90;;
2147;SDS011;1080;48.724;9.104;2022-11-24T18:21:28;15.50;;;8.83;;
2147;SDS011;1080;48.724;9.104;2022-11-24T18:23:56;19.23;;;9.97;;
2147;SDS011;1080;48.724;9.104;2022-11-24T18:26:23;12.00;;;6.90;;
2147;SDS011;1080;48.724;9.104;2022-11-24T18:28:50;16.30;;;9.43;;
2147;SDS011;1080;48.724;9.104;2022-11-24T18:31:17;18.07;;;7.33;;
2147;SDS011;1080;48.724;9.104;2022-11-24T18:33:46;12.53;;;6.20;;
2147;SDS011;1080;48.724;9.104;2022-11-24T18:36:14;16.20;;;6.60;;
2147;SDS011;1080;48.724;9.104;2022-11-24T18:38:41;19.07;;;8.13;;
2147;SDS011;1080;48.724;9.104;2022-11-24T18:41:10;20.33;;;7.40;;
2147;SDS011;1080;48.724;9.104;2022-11-24T18:43:38;13.50;;;6.77;;
2147;SDS011;1080;48.724;9.104;2022-11-24T18:46:06;21.43;;;10.43;;
2147;SDS011;1080;48.724;9.104;2022-11-24T18:48:41;8.60;;;4.60;;
2147;SDS011;1080;48.724;9.104;2022-11-24T18:51:08;13.27;;;5.70;;
2147;SDS011;1080;48.724;9.104;2022-11-24T18:53:38;10.33;;;3.97;;
2147;SDS011;1080;48.724;9.104;2022-11-24T18:56:06;9.43;;;4.27;;
2147;SDS011;1080;48.724;9.104;2022-11-24T18:58:34;8.00;;;3.73;;
2147;SDS011;1080;48.724;9.104;2022-11-24T19:01:05;17.40;;;10.63;;
2147;SDS011;1080;48.724;9.104;2022-11-24T19:03:32;10.13;;;4.03;;
2147;SDS011;1080;48.724;9.104;2022-11-24T19:06:00;4.27;;;3.07;;
2147;SDS011;1080;48.724;9.104;2022-11-24T19:08:27;4.13;;;2.60;;
2147;SDS011;1080;48.724;9.104;2022-11-24T19:10:54;5.63;;;3.10;;
2147;SDS011;1080;48.724;9.104;2022-11-24T19:13:21;6.67;;;3.20;;
2147;SDS011;1080;48.724;9.104;2022-11-24T19:15:50;9.20;;;3.67;;
2147;SDS011;1080;48.724;9.104;2022-11-24T19:18:17;9.20;;;3.60;;
2147;SDS011;1080;48.724;9.104;2022-11-24T19:20:44;8.77;;;2.60;;
2147;SDS011;1080;48.724;9.104;2022-11-24T19:23:11;6.40;;;2.90;;
2147;SDS011;1080;48.724;9.104;2022-11-24T19:25:39;5.30;;;3.27;;
2147;SDS011;1080;48.724;9.104;2022-11-24T19:28:06;10.87;;;6.33;;
2147;SDS011;1080;48.724;9.104;2022-11-24T19:30:36;13.10;;;7.07;;
2147;SDS011;1080;48.724;9.104;2022-11-24T19:33:06;8.27;;;4.80;;
2147;SDS011;1080;48.724;9.104;2022-11-24T19:35:34;7.23;;;3.70;;
2147;SDS011;1080;48.724;9.104;2022-11-24T19:38:01;19.67;;;10.30;;
2147;SDS011;1080;48.724;9.104;2022-11-24T19:40:28;11.27;;;7.20;;
2147;SDS011;1080;48.724;9.104;2022-11-24T19:42:55;14.60;;;8.73;;
2147;SDS011;1080;48.724;9.104;2022-11-24T19:45:22;19.67;;;8.70;;
2147;SDS011;1080;48.724;9.104;2022-11-24T19:47:49;18.03;;;7.07;;
2147;SDS011;1080;48.724;9.104;2022-11-24T19:50:18;14.47;;;7.77;;
2147;SDS011;1080;48.724;9.104;2022-11-24T19:52:46;12.33;;;7.93;;
2147;SDS011;1080;48.724;9.104;2022-11-24T19:55:13;18.00;;;6.70;;
2147;SDS011;1080;48.724;9.104;2022-11-24T19:57:40;13.17;;;7.43;;
2147;SDS011;1080;48.724;9.104;2022-11-24T20:00:07;16.47;;;8.00;;
2147;SDS011;1080;48.724;9.104;2022-11-24T20:02:35;11.27;;;7.50;;
2147;SDS011;1080;48.724;9.104;2022-11-24T20:05:02;10.53;;;5.50;;
2147;SDS011;1080;48.724;9.104;2022-11-24T20:07:30;9.80;;;5.73;;
2147;SDS011;1080;48.724;9.104;2022-11-24T20:09:57;9.20;;;5.57;;
2147;SDS011;1080;48.724;9.104;2022-11-24T20:12:24;8.83;;;6.60;;
2147;SDS011;1080;48.724;9.104;2022-11-24T20:14:52;12.80;;;7.03;;
2147;SDS011;1080;48.724;9.104;2022-11-24T20:17:19;10.17;;;6.47;;
2147;SDS011;1080;48.724;9.104;2022-11-24T20:19:46;9.23;;;6.10;;
2147;SDS011;1080;48.724;9.104;2022-11-24T20:22:13;9.80;;;6.53;;
2147;SDS011;1080;48.724;9.104;2022-11-24T20:24:41;10.20;;;6.50;;
2147;SDS011;1080;48.724;9.104;2022-11-24T20:27:09;8.93;;;5.80;;
2147;SDS011;1080;48.724;9.104;2022-11-24T20:29:36;8.63;;;4.80;;
2147;SDS011;1080;48.724;9.104;2022-11-24T20:32:03;9.70;;;5.67;;
2147;SDS011;1080;48.724;9.104;2022-11-24T20:34:30;8.83;;;5.00;;
2147;SDS011;1080;48.724;9.104;2022-11-24T20:36:57;9.87;;;5.13;;
2147;SDS011;1080;48.724;9.104;2022-11-24T20:39:25;4.60;;;3.50;;
2147;SDS011;1080;48.724;9.104;2022-11-24T20:41:54;8.90;;;4.63;;
2147;SDS011;1080;48.724;9.104;2022-11-24T20:44:21;7.70;;;5.77;;
2147;SDS011;1080;48.724;9.104;2022-11-24T20:46:50;10.27;;;5.90;;
2147;SDS011;1080;48.724;9.104;2022-11-24T20:49:20;10.50;;;7.20;;
2147;SDS011;1080;48.724;9.104;2022-11-24T20:51:47;39.07;;;15.27;;
2147;SDS011;1080;48.724;9.104;2022-11-24T20:54:18;19.13;;;10.23;;
2147;SDS011;1080;48.724;9.104;2022-11-24T20:56:45;10.00;;;6.40;;
2147;SDS011;1080;48.724;9.104;2022-11-24T20:59:15;15.73;;;9.00;;
2147;SDS011;1080;48.724;9.104;2022-11-24T21:01:43;16.77;;;9.40;;
2147;SDS011;1080;48.724;9.104;2022-11-24T21:04:11;23.07;;;13.00;;
2147;SDS011;1080;48.724;9.104;2022-11-24T21:06:40;35.83;;;12.50;;
2147;SDS011;1080;48.724;9.104;2022-11-24T21:09:07;25.23;;;10.70;;
2147;SDS011;1080;48.724;9.104;2022-11-24T21:11:35;20.10;;;10.30;;
2147;SDS011;1080;48.724;9.104;2022-11-24T21:14:02;16.70;;;10.23;;
2147;SDS011;1080;48.724;9.104;2022-11-24T21:16:31;17.33;;;7.90;;
2147;SDS011;1080;48.724;9.104;2022-11-24T21:19:00;14.73;;;7.20;;
2147;SDS011;1080;48.724;9.104;2022-11-24T21:21:28;13.70;;;7.33;;
2147;SDS011;1080;48.724;9.104;2022-11-24T21:23:58;13.27;;;6.87;;
2147;SDS011;1080;48.724;9.104;2022-11-24T21:26:25;10.90;;;6.80;;
2147;SDS011;1080;48.724;9.104;2022-11-24T21:28:52;10.70;;;7.10;;
2147;SDS011;1080;48.724;9.104;2022-11-24T21:31:19;9.93;;;6.37;;
2147;SDS011;1080;48.724;9.104;2022-11-24T21:33:48;12.07;;;6.47;;
2147;SDS011;1080;48.724;9.104;2022-11-24T21:36:17;11.70;;;6.97;;
2147;SDS011;1080;48.724;9.104;2022-11-24T21:38:48;14.73;;;7.33;;
2147;SDS011;1080;48.724;9.104;2022-11-24T21:41:15;12.27;;;6.93;;
2147;SDS011;1080;48.724;9.104;2022-11-24T21:43:42;12.93;;;6.73;;
2147;SDS011;1080;48.724;9.104;2022-11-24T21:46:10;11.50;;;6.60;;
2147;SDS011;1080;48.724;9.104;2022-11-24T21:48:38;15.40;;;7.00;;
2147;SDS011;1080;48.724;9.104;2022-11-24T21:51:09;13.10;;;6.97;;
2147;SDS011;1080;48.724;9.104;2022-11-24T21:53:38;10.47;;;7.70;;
2147;SDS011;1080;48.724;9.104;2022-11-24T21:56:05;13.93;;;6.80;;
2147;SDS011;1080;48.724;9.104;2022-11-24T21:58:36;11.00;;;6.30;;
2147;SDS011;1080;48.724;9.104;2022-11-24T22:01:04;13.00;;;7.53;;
2147;SDS011;1080;48.724;9.104;2022-11-24T22:03:33;14.00;;;7.37;;
2147;SDS011;1080;48.724;9.104;2022-11-24T22:06:00;10.03;;;5.73;;
2147;SDS011;1080;48.724;9.104;2022-11-24T22:08:29;10.40;;;5.63;;
2147;SDS011;1080;48.724;9.104;2022-11-24T22:11:00;14.70;;;6.07;;
2147;SDS011;1080;48.724;9.104;2022-11-24T22:13:27;10.07;;;4.60;;
2147;SDS011;1080;48.724;9.104;2022-11-24T22:16:02;8.93;;;4.43;;
2147;SDS011;1080;48.724;9.104;2022-11-24T22:18:31;10.67;;;3.67;;
2147;SDS011;1080;48.724;9.104;2022-11-24T22:20:58;12.87;;;4.83;;
2147;SDS011;1080;48.724;9.104;2022-11-24T22:23:26;7.20;;;2.97;;
2147;SDS011;1080;48.724;9.104;2022-11-24T22:25:55;8.60;;;3.50;;
2147;SDS011;1080;48.724;9.104;2022-11-24T22:28:29;9.40;;;3.20;;
2147;SDS011;1080;48.724;9.104;2022-11-24T22:30:56;5.50;;;2.47;;
2147;SDS011;1080;48.724;9.104;2022-11-24T22:33:23;5.70;;;3.77;;
2147;SDS011;1080;48.724;9.104;2022-11-24T22:35:55;5.30;;;2.53;;
2147;SDS011;1080;48.724;9.104;2022-11-24T22:38:22;5.70;;;2.20;;
2147;SDS011;1080;48.724;9.104;2022-11-24T22:40:49;5.40;;;2.30;;
2147;SDS011;1080;48.724;9.104;2022-11-24T22:43:18;7.37;;;3.23;;
2147;SDS011;1080;48.724;9.104;2022-11-24T22:45:45;4.13;;;1.80;;
2147;SDS011;1080;48.724;9.104;2022-11-24T22:48:12;8.07;;;2.40;;
2147;SDS011;1080;48.724;9.104;2022-11-24T22:50:39;9.60;;;2.50;;
2147;SDS011;1080;48.724;9.104;2022-11-24T22:53:06;5.80;;;2.13;;
2147;SDS011;1080;48.724;9.104;2022-11-24T22:55:33;3.10;;;2.03;;
2147;SDS011;1080;48.724;9.104;2022-11-24T22:58:00;5.47;;;1.80;;
2147;SDS011;1080;48.724;9.104;2022-11-24T23:00:29;5.40;;;2.80;;
2147;SDS011;1080;48.724;9.104;2022-11-24T23:02:55;6.40;;;2.40;;
2147;SDS011;1080;48.724;9.104;2022-11-24T23:05:22;3.90;;;2.07;;
2147;SDS011;1080;48.724;9.104;2022-11-24T23:07:50;5.47;;;2.40;;
2147;SDS011;1080;48.724;9.104;2022-11-24T23:10:17;6.90;;;2.57;;
2147;SDS011;1080;48.724;9.104;2022-11-24T23:12:44;7.90;;;2.70;;
2147;SDS011;1080;48.724;9.104;2022-11-24T23:15:11;7.60;;;2.80;;
2147;SDS011;1080;48.724;9.104;2022-11-24T23:17:39;4.20;;;2.17;;
2147;SDS011;1080;48.724;9.104;2022-11-24T23:20:06;11.40;;;3.30;;
2147;SDS011;1080;48.724;9.104;2022-11-24T23:22:34;4.80;;;2.20;;
2147;SDS011;1080;48.724;9.104;2022-11-24T23:25:01;6.20;;;2.07;;
2147;SDS011;1080;48.724;9.104;2022-11-24T23:27:28;4.87;;;2.43;;
2147;SDS011;1080;48.724;9.104;2022-11-24T23:29:55;7.27;;;2.40;;
2147;SDS011;1080;48.724;9.104;2022-11-24T23:32:22;4.03;;;2.10;;
2147;SDS011;1080;48.724;9.104;2022-11-24T23:34:50;6.90;;;2.70;;
2147;SDS011;1080;48.724;9.104;2022-11-24T23:37:17;7.03;;;1.90;;
2147;SDS011;1080;48.724;9.104;2022-11-24T23:39:44;7.10;;;2.40;;
2147;SDS011;1080;48.724;9.104;2022-11-24T23:42:11;4.87;;;2.50;;
2147;SDS011;1080;48.724;9.104;2022-11-24T23:44:39;5.67;;;2.43;;
2147;SDS011;1080;48.724;9.104;2022-11-24T23:47:06;6.57;;;2.60;;
2147;SDS011;1080;48.724;9.104;2022-11-24T23:49:33;5.70;;;2.90;;
2147;SDS011;1080;48.724;9.104;2022-11-24T23:52:01;9.17;;;3.67;;
2147;SDS011;1080;48.724;9.104;2022-11-24T23:54:28;18.17;;;9.67;;
2147;SDS011;1080;48.724;9.104;2022-11-24T23:56:55;7.10;;;3.87;;
2147;SDS011;1080;48.724;9.104;2022-11-24T23:59:22;8.30;;;4.17;;
